createdAt,value
2022-12-05T00:02:57.840Z,5.70
2022-12-05T00:06:58.901Z,5.70
2022-12-05T00:10:59.981Z,5.70
2022-12-05T00:15:01.225Z,5.70
2022-12-05T00:19:04.199Z,5.80
2022-12-05T00:23:05.303Z,5.80
2022-12-05T00:27:06.467Z,5.80
2022-12-05T00:31:13.420Z,5.80
2022-12-05T00:35:14.502Z,5.90
2022-12-05T00:39:15.664Z,6.00
2022-12-05T00:43:16.732Z,5.90
2022-12-05T00:47:17.919Z,6.00
2022-12-05T00:51:22.797Z,5.90
2022-12-05T00:55:23.868Z,5.90
2022-12-05T00:59:24.963Z,6.00
2022-12-05T01:03:26.178Z,5.90
2022-12-05T01:07:27.301Z,5.90
2022-12-05T01:11:28.676Z,5.90
2022-12-05T01:15:29.861Z,6.00
2022-12-05T01:19:32.441Z,5.90
2022-12-05T01:23:33.543Z,6.00
2022-12-05T01:27:34.733Z,5.90
2022-12-05T01:31:36.622Z,5.70
2022-12-05T01:35:40.092Z,5.80
2022-12-05T01:39:41.629Z,5.80
2022-12-05T01:43:54.596Z,5.90
2022-12-05T01:47:55.896Z,6.00
2022-12-05T01:52:04.097Z,5.90
2022-12-05T01:56:05.724Z,5.80
2022-12-05T02:00:13.757Z,6.00
2022-12-05T02:04:15.274Z,6.00
2022-12-05T02:08:16.707Z,6.00
2022-12-05T02:12:19.816Z,5.90
2022-12-05T02:16:39.651Z,6.00
2022-12-05T02:21:08.572Z,6.00
2022-12-05T02:25:29.761Z,6.20
2022-12-05T02:29:51.410Z,6.20
2022-12-05T02:33:56.398Z,6.10
2022-12-05T02:38:10.480Z,6.20
2022-12-05T02:42:39.620Z,6.10
2022-12-05T02:46:42.207Z,6.10
2022-12-05T02:50:43.752Z,6.00
2022-12-05T02:54:48.499Z,6.00
2022-12-05T02:58:54.410Z,6.10
2022-12-05T03:02:58.935Z,6.10
2022-12-05T03:07:06.383Z,6.10
2022-12-05T03:11:07.556Z,6.20
2022-12-05T03:15:15.511Z,6.20
2022-12-05T03:19:26.533Z,6.20
2022-12-05T03:23:33.831Z,6.30
2022-12-05T03:27:47.277Z,6.30
2022-12-05T03:31:58.224Z,6.20
2022-12-05T03:36:15.514Z,6.30
2022-12-05T03:40:27.283Z,6.30
2022-12-05T03:44:32.577Z,6.10
2022-12-05T03:48:46.920Z,6.10
2022-12-05T03:53:20.852Z,6.00
2022-12-05T03:57:28.880Z,5.90
2022-12-05T04:01:32.373Z,5.70
2022-12-05T04:05:49.107Z,5.80
2022-12-05T04:09:54.010Z,5.90
2022-12-05T04:14:10.611Z,6.00
2022-12-05T04:18:12.188Z,6.10
2022-12-05T04:22:13.269Z,6.20
2022-12-05T04:26:18.221Z,6.10
2022-12-05T04:30:31.775Z,6.20
2022-12-05T04:34:36.133Z,6.20
2022-12-05T04:38:47.297Z,6.20
2022-12-05T04:42:51.272Z,6.10
2022-12-05T04:46:56.190Z,6.20
2022-12-05T04:50:58.480Z,6.00
2022-12-05T04:55:06.543Z,5.90
2022-12-05T04:59:07.895Z,5.80
2022-12-05T05:03:29.704Z,5.80
2022-12-05T05:07:30.957Z,5.80
2022-12-05T05:11:33.886Z,5.80
2022-12-05T05:15:35.010Z,5.80
2022-12-05T05:19:36.388Z,5.80
2022-12-05T05:23:37.552Z,5.80
2022-12-05T05:27:38.637Z,5.80
2022-12-05T05:31:40.982Z,5.80
2022-12-05T05:35:42.169Z,5.80
2022-12-05T05:39:43.473Z,6.10
2022-12-05T05:43:45.579Z,6.10
2022-12-05T05:47:49.727Z,6.20
2022-12-05T05:51:50.895Z,6.20
2022-12-05T05:55:51.973Z,6.20
2022-12-05T05:59:53.072Z,6.20
2022-12-05T06:03:54.374Z,6.20
2022-12-05T06:07:55.702Z,6.30
2022-12-05T06:11:56.810Z,6.30
2022-12-05T06:15:57.975Z,6.30
2022-12-05T06:19:59.479Z,6.30
2022-12-05T06:24:00.962Z,6.30
2022-12-05T06:28:02.143Z,6.20
2022-12-05T06:32:03.676Z,6.30
2022-12-05T06:36:07.624Z,6.20
2022-12-05T06:40:10.461Z,6.10
2022-12-05T06:44:11.654Z,6.20
2022-12-05T06:48:12.739Z,6.20
2022-12-05T06:52:13.787Z,6.10
2022-12-05T06:56:17.484Z,6.10
2022-12-05T07:00:23.991Z,6.20
2022-12-05T07:04:25.282Z,6.20
2022-12-05T07:08:26.523Z,6.20
2022-12-05T07:12:27.700Z,6.30
2022-12-05T07:16:29.234Z,6.10
2022-12-05T07:20:49.508Z,6.00
2022-12-05T07:24:33.531Z,6.00
2022-12-05T07:28:35.031Z,6.10
2022-12-05T07:32:36.109Z,6.10
2022-12-05T07:36:37.337Z,6.20
2022-12-05T07:40:38.420Z,6.30
2022-12-05T07:44:39.610Z,6.20
2022-12-05T07:48:40.857Z,6.40
2022-12-05T07:52:42.122Z,6.40
2022-12-05T07:56:47.534Z,6.40
2022-12-05T08:00:46.383Z,6.50
2022-12-05T08:04:47.777Z,6.50
2022-12-05T08:08:50.362Z,6.60
2022-12-05T08:12:52.065Z,6.60
2022-12-05T08:16:53.190Z,6.60
2022-12-05T08:20:54.384Z,6.70
2022-12-05T08:24:56.491Z,6.70
2022-12-05T08:29:00.989Z,6.60
2022-12-05T08:33:02.413Z,6.50
2022-12-05T08:37:03.511Z,6.80
2022-12-05T08:41:07.158Z,8.10
2022-12-05T08:45:08.941Z,8.50
2022-12-05T08:49:11.682Z,7.80
2022-12-05T08:53:12.771Z,7.50
2022-12-05T08:57:13.858Z,7.40
2022-12-05T09:01:18.145Z,7.20
2022-12-05T09:05:28.422Z,7.20
2022-12-05T09:09:22.318Z,7.20
2022-12-05T09:13:23.468Z,7.20
2022-12-05T09:17:24.544Z,6.90
2022-12-05T09:21:28.214Z,7.00
2022-12-05T09:25:29.296Z,7.00
2022-12-05T09:29:30.861Z,6.90
2022-12-05T09:33:34.743Z,6.80
2022-12-05T09:37:40.111Z,6.80
2022-12-05T09:42:09.503Z,6.60
2022-12-05T09:46:35.290Z,6.60
2022-12-05T09:50:36.395Z,6.80
2022-12-05T09:54:37.596Z,6.80
2022-12-05T09:58:52.949Z,6.90
2022-12-05T10:03:03.847Z,7.10
2022-12-05T10:07:37.628Z,7.20
2022-12-05T10:11:45.639Z,7.20
2022-12-05T10:15:57.290Z,7.30
2022-12-05T10:19:59.915Z,7.20
2022-12-05T10:24:04.725Z,7.10
2022-12-05T10:28:09.603Z,7.30
2022-12-05T10:32:14.571Z,7.40
2022-12-05T10:36:15.851Z,7.50
2022-12-05T10:40:17.260Z,7.30
2022-12-05T10:44:19.136Z,7.40
2022-12-05T10:48:21.923Z,7.40
2022-12-05T10:52:23.691Z,7.20
2022-12-05T10:56:48.746Z,7.40
2022-12-05T11:00:53.229Z,7.40
2022-12-05T11:04:55.426Z,7.40
2022-12-05T11:09:05.188Z,7.60
2022-12-05T11:13:07.105Z,7.60
2022-12-05T11:17:12.076Z,7.50
2022-12-05T11:21:14.122Z,7.50
2022-12-05T11:25:33.234Z,7.60
2022-12-05T11:29:37.829Z,7.40
2022-12-05T11:33:39.158Z,7.30
2022-12-05T11:37:47.120Z,7.40
2022-12-05T11:42:11.719Z,7.60
2022-12-05T11:46:33.094Z,7.20
2022-12-05T11:50:47.262Z,7.30
2022-12-05T11:55:06.137Z,7.00
2022-12-05T11:59:10.736Z,7.30
2022-12-05T12:03:21.874Z,7.10
2022-12-05T12:07:46.578Z,7.10
2022-12-05T12:11:51.581Z,7.20
2022-12-05T12:16:19.287Z,7.10
2022-12-05T12:20:39.397Z,7.30
2022-12-05T12:24:53.435Z,7.40
2022-12-05T12:29:10.475Z,7.60
2022-12-05T12:33:36.467Z,7.50
2022-12-05T12:38:13.142Z,7.40
2022-12-05T12:42:27.138Z,7.40
2022-12-05T12:46:49.065Z,7.30
2022-12-05T12:50:53.168Z,7.50
2022-12-05T12:55:10.752Z,7.30
2022-12-05T12:59:24.582Z,7.40
2022-12-05T13:03:49.858Z,7.60
2022-12-05T13:07:51.511Z,7.50
2022-12-05T13:11:55.226Z,7.20
2022-12-05T13:16:00.156Z,7.10
2022-12-05T13:20:01.957Z,7.30
2022-12-05T13:24:04.283Z,7.40
2022-12-05T13:28:09.296Z,7.40
2022-12-05T13:32:29.303Z,7.60
2022-12-05T13:36:58.301Z,7.60
2022-12-05T13:41:17.735Z,7.70
2022-12-05T13:45:20.076Z,7.40
2022-12-05T13:49:31.134Z,7.60
2022-12-05T13:53:47.706Z,7.80
2022-12-05T13:57:52.112Z,7.70
2022-12-05T14:01:56.245Z,7.80
2022-12-05T14:05:56.221Z,7.80
2022-12-05T14:09:57.639Z,7.70
2022-12-05T14:14:04.259Z,7.80
2022-12-05T14:18:11.492Z,7.90
2022-12-05T14:22:28.454Z,7.70
2022-12-05T14:27:07.010Z,7.90
2022-12-05T14:31:14.767Z,7.80
2022-12-05T14:35:20.198Z,7.70
2022-12-05T14:39:30.698Z,7.80
2022-12-05T14:43:33.880Z,7.70
2022-12-05T14:47:35.102Z,7.80
2022-12-05T14:51:40.067Z,7.90
2022-12-05T14:55:47.031Z,7.90
2022-12-05T14:59:58.082Z,7.90
2022-12-05T15:04:18.391Z,8.00
2022-12-05T15:08:20.660Z,8.00
2022-12-05T15:12:28.697Z,8.00
2022-12-05T15:16:32.872Z,8.00
2022-12-05T15:20:43.257Z,7.70
2022-12-05T15:24:44.332Z,7.70
2022-12-05T15:29:04.380Z,7.80
2022-12-05T15:33:09.230Z,7.70
2022-12-05T15:37:19.779Z,7.60
2022-12-05T15:41:20.939Z,7.70
2022-12-05T15:45:29.336Z,7.70
2022-12-05T15:49:30.443Z,7.70
2022-12-05T15:53:37.846Z,7.70
2022-12-05T15:57:45.785Z,7.40
2022-12-05T16:01:53.241Z,7.40
2022-12-05T16:06:01.235Z,7.40
2022-12-05T16:10:02.867Z,7.60
2022-12-05T16:14:06.400Z,7.50
2022-12-05T16:18:14.222Z,7.60
2022-12-05T16:22:22.335Z,7.50
2022-12-05T16:26:24.112Z,7.30
2022-12-05T16:30:26.184Z,7.40
2022-12-05T16:34:29.046Z,7.70
2022-12-05T16:38:31.008Z,7.60
2022-12-05T16:42:32.094Z,7.70
2022-12-05T16:46:39.967Z,7.80
2022-12-05T16:50:41.621Z,7.70
2022-12-05T16:54:45.489Z,7.60
2022-12-05T16:58:46.778Z,7.70
2022-12-05T17:02:47.924Z,7.80
2022-12-05T17:06:49.011Z,8.00
2022-12-05T17:10:51.166Z,7.80
2022-12-05T17:14:52.256Z,7.90
2022-12-05T17:18:53.526Z,7.90
2022-12-05T17:22:54.613Z,7.80
2022-12-05T17:26:55.689Z,7.80
2022-12-05T17:30:56.902Z,7.90
2022-12-05T17:35:01.182Z,8.00
2022-12-05T17:39:01.218Z,7.80
2022-12-05T17:43:02.602Z,7.90
2022-12-05T17:47:07.903Z,7.70
2022-12-05T17:51:10.538Z,7.70
2022-12-05T17:55:18.155Z,7.80
2022-12-05T17:59:19.315Z,7.90
2022-12-05T18:03:20.575Z,7.80
2022-12-05T18:07:21.738Z,7.80
2022-12-05T18:11:22.814Z,7.90
2022-12-05T18:15:23.871Z,7.70
2022-12-05T18:19:25.050Z,7.70
2022-12-05T18:23:26.109Z,7.80
2022-12-05T18:27:27.631Z,7.80
2022-12-05T18:31:30.222Z,7.50
2022-12-05T18:35:40.450Z,7.50
2022-12-05T18:39:42.024Z,7.40
2022-12-05T18:43:43.161Z,7.40
2022-12-05T18:47:44.965Z,7.30
2022-12-05T18:51:46.372Z,7.50
2022-12-05T18:59:51.256Z,7.60
2022-12-05T19:03:52.872Z,7.60
2022-12-05T19:07:54.404Z,7.60
2022-12-05T19:11:58.196Z,7.60
2022-12-05T19:16:08.382Z,7.40
2022-12-05T19:20:11.579Z,7.50
2022-12-05T19:24:16.157Z,7.50
2022-12-05T19:28:17.544Z,7.50
2022-12-05T19:32:19.090Z,7.30
2022-12-05T19:36:24.058Z,7.40
2022-12-05T19:40:25.240Z,7.30
2022-12-05T19:44:26.864Z,7.30
2022-12-05T19:48:29.468Z,7.20
2022-12-05T19:52:30.743Z,7.50
2022-12-05T19:56:33.301Z,7.40
2022-12-05T20:00:34.443Z,7.40
2022-12-05T20:04:35.724Z,7.50
2022-12-05T20:08:37.361Z,7.40
2022-12-05T20:12:38.447Z,7.40
2022-12-05T20:16:40.513Z,7.30
2022-12-05T20:20:43.099Z,7.30
2022-12-05T20:24:46.100Z,7.40
2022-12-05T20:28:47.637Z,7.40
2022-12-05T20:32:48.837Z,7.50
2022-12-05T20:36:49.891Z,7.50
2022-12-05T20:40:50.993Z,7.40
2022-12-05T20:44:52.305Z,7.50
2022-12-05T20:48:55.615Z,7.60
2022-12-05T20:52:56.977Z,7.60
2022-12-05T20:56:58.295Z,7.60
2022-12-05T21:01:01.225Z,7.40
2022-12-05T21:05:02.453Z,7.60
2022-12-05T21:09:06.838Z,7.50
2022-12-05T21:13:08.057Z,7.70
2022-12-05T21:17:09.251Z,8.00
2022-12-05T21:21:17.062Z,8.00
2022-12-05T21:25:18.106Z,7.60
2022-12-05T21:29:19.221Z,7.70
2022-12-05T21:33:23.278Z,7.70
2022-12-05T21:37:23.518Z,7.50
2022-12-05T21:41:25.905Z,7.50
2022-12-05T21:45:27.207Z,7.60
2022-12-05T21:49:28.414Z,7.70
2022-12-05T21:53:29.590Z,7.70
2022-12-05T21:57:34.783Z,7.70
2022-12-05T22:01:36.039Z,7.80
2022-12-05T22:05:37.475Z,7.60
2022-12-05T22:09:38.653Z,7.70
2022-12-05T22:13:45.095Z,7.70
2022-12-05T22:17:46.728Z,7.60
2022-12-05T22:21:48.834Z,7.70
2022-12-05T22:26:00.843Z,7.70
2022-12-05T22:30:02.282Z,7.50
2022-12-05T22:34:04.110Z,7.60
2022-12-05T22:38:05.309Z,7.60
2022-12-05T22:42:06.431Z,7.70
2022-12-05T22:46:11.162Z,7.70
2022-12-05T22:50:15.116Z,7.70
2022-12-05T22:54:16.210Z,7.60
2022-12-05T22:58:17.975Z,7.40
2022-12-05T23:02:19.249Z,7.50
2022-12-05T23:06:20.374Z,7.50
2022-12-05T23:10:25.855Z,7.60
2022-12-05T23:14:27.004Z,7.80
2022-12-05T23:18:28.114Z,7.80
2022-12-05T23:22:29.260Z,7.80
2022-12-05T23:26:34.054Z,7.80
2022-12-05T23:30:35.196Z,7.70
2022-12-05T23:34:36.355Z,7.80
2022-12-05T23:38:39.091Z,7.70
2022-12-05T23:42:40.261Z,7.80
2022-12-05T23:46:41.869Z,7.90
2022-12-05T23:50:43.252Z,7.80
2022-12-05T23:54:44.463Z,7.80
2022-12-05T23:58:46.211Z,7.70
